Time;durP1;ratioP1;P1;durP2;ratioP2;P2;SDS_P1;SDS_P2;PMS_P1;PMS_P2;Temp;Humidity;BMP_temperature;BMP_pressure;BME280_temperature;BME280_humidity;BME280_pressure;Samples;Min_cycle;Max_cycle;Signal;HPM_P1;HPM_P2
2022/04/17 00:01:03;;;;;;;2.75;1.95;;;;;;;7.97;39.64;97906.66;5053019;28;20099;-76
2022/04/17 00:03:31;;;;;;;3.10;2.13;;;;;;;7.98;39.92;97910.91;5051412;28;20048;-76
2022/04/17 00:05:58;;;;;;;3.33;2.15;;;;;;;8.04;40.22;97907.75;5051813;28;20053;-75
2022/04/17 00:08:28;;;;;;;2.78;2.03;;;;;;;8.06;40.12;97905.03;5053366;28;20049;-76
2022/04/17 00:10:55;;;;;;;2.63;2.05;;;;;;;8.09;41.09;97904.78;5053006;28;20049;-76
2022/04/17 00:13:23;;;;;;;3.80;2.78;;;;;;;8.13;40.27;97898.31;5052903;28;20041;-76
2022/04/17 00:15:51;;;;;;;3.30;2.15;;;;;;;8.13;40.42;97894.91;5052701;28;20377;-76
2022/04/17 00:18:18;;;;;;;5.03;2.63;;;;;;;8.14;40.11;97892.19;5052698;28;20103;-76
2022/04/17 00:20:46;;;;;;;2.22;2.00;;;;;;;8.09;39.49;97890.94;5053154;28;20052;-76
2022/04/17 00:23:13;;;;;;;3.17;2.22;;;;;;;8.06;40.57;97892.03;5053061;28;20048;-76
2022/04/17 00:25:42;;;;;;;6.60;3.80;;;;;;;8.07;40.03;97888.50;5052877;28;20558;-76
2022/04/17 00:28:10;;;;;;;4.30;2.80;;;;;;;8.08;40.63;97884.94;5052666;28;20084;-76
2022/04/17 00:30:37;;;;;;;3.75;2.72;;;;;;;8.15;41.31;97885.22;5052897;28;20662;-76
2022/04/17 00:33:05;;;;;;;3.47;2.28;;;;;;;8.22;41.42;97876.75;5052688;28;20709;-76
2022/04/17 00:35:34;;;;;;;2.78;2.28;;;;;;;8.25;41.51;97886.06;5052960;28;20128;-75
2022/04/17 00:38:02;;;;;;;2.78;1.90;;;;;;;8.33;42.27;97882.75;5051933;28;20056;-76
2022/04/17 00:40:30;;;;;;;3.95;2.58;;;;;;;8.33;41.51;97873.19;5052568;28;20045;-75
2022/04/17 00:42:59;;;;;;;2.50;2.00;;;;;;;8.34;41.22;97880.03;5053458;28;20053;-75
2022/04/17 00:45:26;;;;;;;2.85;2.35;;;;;;;8.27;41.07;97873.75;5063449;28;20053;-76
2022/04/17 00:47:54;;;;;;;2.50;2.30;;;;;;;8.20;41.85;97872.66;5051854;28;20045;-76
2022/04/17 00:50:21;;;;;;;2.90;2.10;;;;;;;8.31;43.21;97879.47;5052398;28;20060;-76
2022/04/17 00:52:49;;;;;;;3.78;2.65;;;;;;;8.39;42.87;97877.03;5052289;28;20053;-76
2022/04/17 00:55:17;;;;;;;2.55;2.13;;;;;;;8.42;42.30;97876.78;5052361;28;20108;-76
2022/04/17 00:57:45;;;;;;;2.97;2.40;;;;;;;8.41;43.04;97875.13;5051484;28;20060;-76
2022/04/17 01:00:14;;;;;;;2.33;2.13;;;;;;;8.36;42.51;97877.31;5052303;28;20045;-76
2022/04/17 01:02:44;;;;;;;2.25;2.00;;;;;;;8.31;41.64;97872.50;5051986;28;20128;-76
2022/04/17 01:05:12;;;;;;;3.50;2.22;;;;;;;8.33;41.98;97872.34;5052430;28;20049;-76
2022/04/17 01:07:40;;;;;;;2.40;2.20;;;;;;;8.20;41.63;97859.66;5051650;28;20139;-76
2022/04/17 01:10:08;;;;;;;2.38;2.17;;;;;;;8.11;42.58;97858.69;5052849;28;20053;-76
2022/04/17 01:12:36;;;;;;;3.50;2.40;;;;;;;8.14;43.12;97858.41;5067916;28;20053;-76
2022/04/17 01:15:05;;;;;;;3.15;2.70;;;;;;;8.07;41.95;97849.50;5052246;28;20132;-76
2022/04/17 01:17:34;;;;;;;2.92;2.05;;;;;;;7.99;43.24;97849.34;5053302;28;20136;-76
2022/04/17 01:20:01;;;;;;;1.95;1.83;;;;;;;8.05;43.73;97841.03;5063451;28;20131;-76
2022/04/17 01:22:31;;;;;;;4.55;2.40;;;;;;;8.08;43.24;97843.34;5052110;28;20048;-76
2022/04/17 01:27:40;;;;;;;2.65;2.45;;;;;;;8.04;42.59;97839.38;5049821;28;20053;-76
2022/04/17 01:30:09;;;;;;;3.80;2.53;;;;;;;8.02;44.28;97828.28;5051943;28;20148;-75
2022/04/17 01:32:36;;;;;;;2.97;2.65;;;;;;;8.09;43.50;97828.56;5052266;28;20049;-76
2022/04/17 01:35:04;;;;;;;3.40;2.50;;;;;;;8.03;42.79;97829.94;5051784;28;20507;-76
2022/04/17 01:37:33;;;;;;;3.42;2.13;;;;;;;8.03;44.71;97825.56;5070283;28;20051;-76
2022/04/17 01:40:00;;;;;;;3.03;2.13;;;;;;;8.18;45.07;97825.19;5055783;28;20057;-76
2022/04/17 01:42:28;;;;;;;5.28;3.28;;;;;;;8.29;45.59;97829.38;5056632;28;20123;-76
2022/04/17 01:44:56;;;;;;;3.20;2.78;;;;;;;8.34;44.99;97822.03;5071631;28;20041;-76
2022/04/17 01:47:24;;;;;;;2.95;2.40;;;;;;;8.32;43.03;97822.16;5070859;28;20057;-76
2022/04/17 01:49:51;;;;;;;2.35;2.15;;;;;;;8.15;43.17;97823.66;5057497;28;20056;-77
2022/04/17 01:52:19;;;;;;;4.60;2.20;;;;;;;7.97;42.90;97820.09;5056283;28;20044;-77
2022/04/17 01:54:48;;;;;;;2.88;2.22;;;;;;;7.81;44.76;97821.44;5072931;28;20048;-76
2022/04/17 01:57:16;;;;;;;3.00;2.05;;;;;;;7.79;43.80;97812.94;5069848;28;20612;-78
2022/04/17 01:59:43;;;;;;;2.33;2.13;;;;;;;7.75;44.69;97811.56;5064846;28;20056;-75
2022/04/17 02:02:11;;;;;;;3.05;2.42;;;;;;;7.76;44.36;97808.03;5069140;28;20048;-77
2022/04/17 02:04:38;;;;;;;2.95;2.67;;;;;;;7.73;43.66;97804.88;5051328;28;20110;-77
2022/04/17 02:07:06;;;;;;;2.40;2.20;;;;;;;7.71;44.65;97804.19;5051741;28;20049;-76
2022/04/17 02:09:34;;;;;;;3.60;2.38;;;;;;;7.66;44.38;97807.19;5062978;28;20048;-76
2022/04/17 02:12:03;;;;;;;2.80;2.42;;;;;;;7.64;44.45;97814.28;5070013;28;20131;-77
2022/04/17 02:14:30;;;;;;;3.33;2.85;;;;;;;7.67;44.08;97802.81;5052517;28;20049;-77
2022/04/17 02:16:58;;;;;;;3.10;2.42;;;;;;;7.74;44.79;97798.72;5071318;28;20043;-75
2022/04/17 02:19:25;;;;;;;3.95;2.30;;;;;;;7.81;44.45;97798.06;5085590;28;20051;-75
2022/04/17 02:21:53;;;;;;;3.72;2.30;;;;;;;7.74;43.37;97802.16;5067815;28;20052;-76
2022/04/17 02:24:20;;;;;;;3.75;2.85;;;;;;;7.62;43.41;97798.03;5070317;28;20128;-76
2022/04/17 02:26:48;;;;;;;2.90;2.60;;;;;;;7.50;43.46;97786.94;5068382;28;20079;-76
2022/04/17 02:29:17;;;;;;;3.80;3.00;;;;;;;7.38;43.28;97785.38;5065548;28;20075;-76
2022/04/17 02:31:44;;;;;;;4.10;2.95;;;;;;;7.31;43.64;97781.69;5069991;28;20052;-76
2022/04/17 02:34:13;;;;;;;7.47;4.13;;;;;;;7.20;43.99;97775.63;5055185;28;20056;-76
2022/04/17 02:36:40;;;;;;;4.70;3.42;;;;;;;7.09;43.88;97769.72;5054452;28;20048;-76
2022/04/17 02:39:08;;;;;;;6.15;3.72;;;;;;;7.08;45.64;97765.47;5062644;28;20052;-76
2022/04/17 02:41:36;;;;;;;6.45;3.95;;;;;;;7.09;44.91;97767.13;5054333;28;20499;-76
2022/04/17 02:44:06;;;;;;;4.63;3.45;;;;;;;7.04;45.25;97769.28;5069339;28;20131;-75
2022/04/17 02:49:20;;;;;;;4.93;3.17;;;;;;;6.98;46.65;97763.66;5057246;28;20053;-76
2022/04/17 02:51:47;;;;;;;5.45;3.20;;;;;;;6.94;45.51;97754.50;5061337;28;20044;-76
2022/04/17 02:54:15;;;;;;;4.75;2.88;;;;;;;6.89;45.39;97763.66;5075250;28;20044;-76
2022/04/17 02:56:43;;;;;;;4.03;3.38;;;;;;;6.88;46.52;97770.56;5073382;28;20040;-76
2022/04/17 02:59:10;;;;;;;7.13;2.90;;;;;;;6.91;45.98;97775.53;5065078;28;20525;-76
2022/04/17 03:07:09;;;;;;;3.08;2.58;;;;;;;6.75;47.65;97764.78;5053788;28;20052;-76
2022/04/17 03:09:37;;;;;;;4.20;3.20;;;;;;;6.76;46.69;97750.88;5068845;28;20129;-75
2022/04/17 03:12:05;;;;;;;4.38;2.70;;;;;;;6.66;46.13;97760.38;5062090;28;20057;-76
2022/04/17 03:14:33;;;;;;;4.80;3.17;;;;;;;6.55;45.82;97758.69;5055311;28;20041;-76
2022/04/17 03:17:04;;;;;;;3.83;3.03;;;;;;;6.44;45.81;97762.16;5056888;28;20581;-76
2022/04/17 03:19:31;;;;;;;3.58;3.05;;;;;;;6.35;46.54;97765.53;5049361;28;20044;-75
2022/04/17 03:21:59;;;;;;;3.17;2.65;;;;;;;6.35;46.36;97760.34;5064679;28;20049;-76
2022/04/17 03:24:26;;;;;;;4.25;2.50;;;;;;;6.31;46.37;97766.72;5041651;28;20507;-76
2022/04/17 03:26:54;;;;;;;4.95;2.95;;;;;;;6.22;46.59;97762.28;5055623;28;20137;-76
2022/04/17 03:29:21;;;;;;;4.88;2.53;;;;;;;6.14;46.70;97768.09;5064386;28;20128;-76
2022/04/17 03:31:49;;;;;;;4.03;2.70;;;;;;;6.08;46.49;97761.66;5054295;28;20056;-76
2022/04/17 03:34:18;;;;;;;3.45;2.65;;;;;;;6.04;46.83;97765.44;5053658;28;20533;-76
2022/04/17 03:36:46;;;;;;;3.72;3.28;;;;;;;6.01;46.95;97763.06;5056271;28;20048;-75
2022/04/17 03:39:14;;;;;;;7.80;3.72;;;;;;;5.89;46.51;97762.28;5043590;28;20092;-75
2022/04/17 03:41:41;;;;;;;3.22;2.90;;;;;;;5.78;46.97;97764.91;5033632;28;20057;-76
2022/04/17 03:44:09;;;;;;;4.53;2.65;;;;;;;5.69;47.40;97769.06;5050318;28;20056;-76
2022/04/17 03:46:36;;;;;;;3.80;3.00;;;;;;;5.76;49.64;97772.78;5052436;28;20045;-76
2022/04/17 03:49:04;;;;;;;3.50;3.20;;;;;;;5.87;47.94;97771.94;5053487;28;20059;-76
2022/04/17 03:51:33;;;;;;;3.50;3.20;;;;;;;5.83;47.74;97769.72;5053567;28;20495;-76
2022/04/17 03:54:00;;;;;;;4.03;3.00;;;;;;;5.80;48.60;97765.63;5053352;28;20052;-75
2022/04/17 03:56:28;;;;;;;6.63;3.42;;;;;;;5.76;47.33;97757.25;5071691;28;20485;-76
2022/04/17 03:58:55;;;;;;;3.38;3.05;;;;;;;5.68;47.70;97746.69;5071367;28;20057;-76
2022/04/17 04:01:26;;;;;;;4.45;3.47;;;;;;;5.58;47.64;97750.97;5059468;28;20056;-76
2022/04/17 04:03:54;;;;;;;3.35;3.05;;;;;;;5.49;47.90;97741.38;5053196;28;20080;-76
2022/04/17 04:06:21;;;;;;;3.08;2.65;;;;;;;5.40;48.25;97750.66;5064743;28;20395;-76
2022/04/17 04:08:50;;;;;;;3.13;2.78;;;;;;;5.31;48.53;97743.59;5059044;28;20049;-76
2022/04/17 04:11:18;;;;;;;5.35;3.33;;;;;;;5.29;48.46;97748.06;5073437;22;20045;-79
2022/04/17 04:13:46;;;;;;;4.55;3.05;;;;;;;5.23;48.46;97749.41;5040745;28;20053;-80
2022/04/17 04:16:14;;;;;;;3.35;3.05;;;;;;;5.21;48.89;97751.28;5040400;28;20417;-80
2022/04/17 04:18:42;;;;;;;4.20;2.88;;;;;;;5.20;48.60;97757.38;5040475;28;20733;-80
2022/04/17 04:21:10;;;;;;;4.90;2.75;;;;;;;5.25;48.68;97746.69;5040744;28;20073;-80
2022/04/17 04:23:38;;;;;;;2.90;2.47;;;;;;;5.26;48.71;97748.34;5040727;28;20490;-80
2022/04/17 04:26:07;;;;;;;4.53;3.20;;;;;;;5.18;48.62;97735.16;5041452;28;20077;-80
2022/04/17 04:28:34;;;;;;;4.68;2.67;;;;;;;5.05;48.76;97745.63;5041641;28;20128;-80
2022/04/17 04:31:01;;;;;;;3.33;2.78;;;;;;;4.91;48.91;97739.78;5041717;28;20057;-80
2022/04/17 04:33:31;;;;;;;3.08;2.33;;;;;;;4.90;50.89;97735.56;5043753;28;20053;-80
2022/04/17 04:35:59;;;;;;;3.15;2.85;;;;;;;4.92;49.66;97730.28;5047418;28;20049;-80
2022/04/17 04:38:27;;;;;;;3.50;2.88;;;;;;;4.89;49.39;97740.84;5046661;28;20132;-80
2022/04/17 04:40:55;;;;;;;4.80;2.90;;;;;;;4.87;49.49;97740.94;5042754;28;20072;-80
2022/04/17 04:43:24;;;;;;;4.65;3.78;;;;;;;4.88;49.68;97741.78;5043051;28;20514;-80
2022/04/17 04:46:10;;;;;;;3.38;2.88;;;;;;;4.96;49.88;97734.25;5042191;28;20120;-80
2022/04/17 04:51:28;;;;;;;4.07;2.95;;;;;;;5.09;49.85;97734.13;5022156;28;20060;-80
2022/04/17 04:53:57;;;;;;;5.65;3.53;;;;;;;5.18;49.12;97732.59;5022772;28;20095;-80
2022/04/17 04:56:25;;;;;;;4.80;4.10;;;;;;;5.24;50.50;97729.53;5036316;28;20053;-80
2022/04/17 04:58:54;;;;;;;7.78;4.60;;;;;;;5.34;50.64;97726.09;5042252;28;20069;-80
2022/04/17 05:01:22;;;;;;;9.38;5.38;;;;;;;5.32;49.36;97727.97;5041016;28;20124;-80
2022/04/17 05:03:49;;;;;;;6.90;4.80;;;;;;;5.22;49.34;97731.41;5043780;28;20140;-80
2022/04/17 05:06:17;;;;;;;7.82;4.43;;;;;;;5.18;50.02;97735.16;5041624;28;20412;-80
2022/04/17 05:08:45;;;;;;;10.27;4.95;;;;;;;5.27;49.77;97737.03;5041828;28;20072;-80
2022/04/17 05:11:13;;;;;;;6.97;4.50;;;;;;;5.24;49.52;97735.50;5041150;28;20045;-80
2022/04/17 05:13:41;;;;;;;4.97;3.28;;;;;;;5.19;49.79;97742.81;5042242;28;20056;-80
2022/04/17 05:16:11;;;;;;;4.00;3.60;;;;;;;5.15;50.46;97749.16;5049650;28;20129;-80
2022/04/17 05:18:38;;;;;;;4.47;3.97;;;;;;;5.12;50.18;97746.84;5050170;28;20068;-80
2022/04/17 05:21:06;;;;;;;5.28;3.50;;;;;;;5.11;50.07;97752.94;5050795;28;20113;-80
2022/04/17 05:23:36;;;;;;;3.78;3.38;;;;;;;5.11;51.54;97751.16;5046475;28;20049;-80
2022/04/17 05:26:05;;;;;;;3.30;3.00;;;;;;;5.29;52.83;97742.91;5042796;28;20145;-80
2022/04/17 05:28:33;;;;;;;3.90;2.92;;;;;;;5.40;50.62;97752.41;5042566;28;20175;-80
2022/04/17 05:31:00;;;;;;;5.00;3.10;;;;;;;5.41;50.35;97743.72;5043528;28;20061;-80
2022/04/17 05:33:29;;;;;;;3.50;3.03;;;;;;;5.41;49.93;97746.31;5042313;28;20056;-80
2022/04/17 05:35:57;;;;;;;3.47;3.05;;;;;;;5.54;51.05;97757.34;5042045;28;20499;-80
2022/04/17 05:38:24;;;;;;;3.85;2.90;;;;;;;5.73;51.55;97752.34;5042550;28;20491;-81
2022/04/17 05:40:53;;;;;;;3.67;3.00;;;;;;;5.89;50.70;97751.91;5041947;28;20045;-80
2022/04/17 05:43:21;;;;;;;3.58;2.90;;;;;;;6.03;50.71;97753.41;5042041;28;20069;-80
2022/04/17 05:45:49;;;;;;;3.15;2.75;;;;;;;6.13;49.05;97750.91;5041052;28;20073;-79
2022/04/17 05:48:17;;;;;;;4.28;3.35;;;;;;;6.09;48.74;97746.94;5041087;28;20056;-80
2022/04/17 05:50:46;;;;;;;2.60;2.40;;;;;;;6.06;50.16;97748.00;5041674;28;20053;-80
2022/04/17 05:53:14;;;;;;;5.15;3.03;;;;;;;6.06;49.60;97748.00;5040919;28;20091;-80
2022/04/17 05:55:42;;;;;;;4.93;3.20;;;;;;;6.06;49.06;97749.78;5043859;28;20053;-79
2022/04/17 05:58:10;;;;;;;3.70;2.95;;;;;;;6.05;48.82;97754.13;5046922;28;20136;-80
2022/04/17 06:00:42;;;;;;;5.57;3.50;;;;;;;6.04;48.64;97755.06;5047578;28;20057;-80
2022/04/17 06:03:09;;;;;;;3.30;3.00;;;;;;;6.03;49.03;97758.59;5047640;28;20049;-80
2022/04/17 06:05:37;;;;;;;3.45;2.85;;;;;;;6.06;48.68;97753.19;5047356;28;20053;-80
2022/04/17 06:08:07;;;;;;;4.20;2.55;;;;;;;6.09;48.44;97746.94;5045349;28;20050;-80
2022/04/17 06:10:34;;;;;;;3.70;3.40;;;;;;;6.10;48.60;97748.56;5044998;28;20048;-80
2022/04/17 06:13:02;;;;;;;4.38;2.83;;;;;;;6.10;48.09;97746.81;5045440;28;20053;-80
2022/04/17 06:15:30;;;;;;;3.55;2.97;;;;;;;6.15;48.48;97751.63;5044720;28;20045;-80
2022/04/17 06:17:59;;;;;;;7.03;2.40;;;;;;;6.23;48.61;97744.03;5043698;28;20125;-80
2022/04/17 06:20:26;;;;;;;4.15;2.72;;;;;;;6.35;51.12;97744.78;5045600;28;20056;-80
2022/04/17 06:22:54;;;;;;;2.95;2.63;;;;;;;6.49;51.16;97736.66;5044696;28;20050;-80
2022/04/17 06:25:23;;;;;;;3.58;2.53;;;;;;;6.68;52.33;97738.56;5044373;28;20045;-80
2022/04/17 06:27:50;;;;;;;3.50;2.65;;;;;;;6.82;51.24;97729.59;5041637;28;20404;-80
2022/04/17 06:30:20;;;;;;;3.83;2.70;;;;;;;6.88;49.36;97726.47;5042069;28;20049;-80
2022/04/17 06:32:48;;;;;;;3.95;3.25;;;;;;;6.89;48.45;97735.13;5041151;28;20049;-80
2022/04/17 06:35:17;;;;;;;3.28;2.90;;;;;;;6.90;48.36;97734.97;5039619;28;20072;-80
2022/04/17 06:37:49;;;;;;;4.85;3.00;;;;;;;6.96;49.02;97737.03;5038316;28;20072;-80
2022/04/17 06:40:18;;;;;;;6.43;3.30;;;;;;;6.99;47.86;97736.75;5039478;28;20608;-80
2022/04/17 06:42:49;;;;;;;4.80;2.67;;;;;;;7.05;49.62;97742.41;5039422;28;20045;-79
2022/04/17 06:45:17;;;;;;;2.97;2.60;;;;;;;7.13;48.48;97737.38;5037825;28;20049;-79
2022/04/17 06:47:45;;;;;;;3.70;2.78;;;;;;;7.20;48.07;97739.31;5037154;28;20389;-80
2022/04/17 06:50:13;;;;;;;3.88;2.63;;;;;;;7.28;47.44;97735.22;5038276;28;20084;-80
2022/04/17 06:52:41;;;;;;;2.47;1.95;;;;;;;7.37;46.13;97730.06;5038166;28;20038;-80
2022/04/17 06:55:12;;;;;;;3.33;1.85;;;;;;;7.51;44.95;97731.44;5037941;28;20045;-80
2022/04/17 06:57:45;;;;;;;3.65;2.35;;;;;;;7.66;43.67;97728.47;5036517;28;20546;-79
2022/04/17 07:00:17;;;;;;;4.50;1.70;;;;;;;7.76;43.41;97714.53;5037998;28;20057;-80
2022/04/17 07:02:45;;;;;;;2.60;2.33;;;;;;;7.90;43.42;97715.06;5036944;28;20060;-80
2022/04/17 07:05:14;;;;;;;3.80;1.65;;;;;;;8.02;43.09;97721.75;5037273;28;20521;-80
2022/04/17 07:07:42;;;;;;;3.90;1.85;;;;;;;8.13;42.26;97718.19;5036114;28;20481;-80
2022/04/17 07:10:11;;;;;;;2.67;1.63;;;;;;;8.21;42.59;97721.72;5037880;28;20049;-80
2022/04/17 07:36:54;;;;;;;5.77;2.10;;;;;;;9.40;41.65;97722.03;5073935;22;20503;-79
2022/04/17 07:39:22;;;;;;;4.75;1.65;;;;;;;9.66;41.32;97718.66;5020677;28;20053;-80
2022/04/17 07:41:50;;;;;;;4.30;1.52;;;;;;;9.89;41.12;97717.25;5035940;28;20060;-79
2022/04/17 07:44:19;;;;;;;5.78;2.42;;;;;;;10.10;38.44;97718.72;5038901;28;20047;-80
2022/04/17 07:46:46;;;;;;;8.98;1.85;;;;;;;10.15;37.45;97726.13;5042223;28;20051;-78
2022/04/17 07:49:14;;;;;;;5.03;1.52;;;;;;;10.15;37.39;97721.72;5034120;28;20056;-80
2022/04/17 07:51:41;;;;;;;2.50;1.20;;;;;;;10.24;37.33;97712.97;5038378;28;20053;-79
2022/04/17 07:54:10;;;;;;;2.72;1.60;;;;;;;10.35;37.08;97722.38;5039638;28;20053;-79
2022/04/17 07:56:38;;;;;;;3.53;2.15;;;;;;;10.44;36.83;97711.03;5035865;28;20049;-78
2022/04/17 07:59:05;;;;;;;4.40;1.70;;;;;;;10.54;36.70;97715.31;5033572;28;20515;-79
2022/04/17 08:01:39;;;;;;;4.18;1.95;;;;;;;10.64;36.51;97716.84;5034638;28;20045;-78
2022/04/17 08:04:07;;;;;;;2.22;1.55;;;;;;;10.70;36.20;97720.63;5033583;28;20045;-79
2022/04/17 08:09:18;;;;;;;1.58;1.40;;;;;;;10.76;35.70;97709.59;5008618;28;20106;-79
2022/04/17 08:11:51;;;;;;;3.03;1.48;;;;;;;10.82;35.59;97713.34;5009183;28;20479;-79
2022/04/17 08:14:19;;;;;;;2.38;1.50;;;;;;;10.85;35.67;97707.84;5010569;28;20054;-81
2022/04/17 08:16:46;;;;;;;2.15;1.60;;;;;;;10.89;35.78;97694.31;4994712;28;20074;-80
2022/04/17 08:19:14;;;;;;;6.50;1.90;;;;;;;10.94;35.64;97696.44;4994815;28;20050;-79
2022/04/17 08:21:42;;;;;;;3.40;1.85;;;;;;;11.03;35.36;97697.28;4993682;28;20053;-78
2022/04/17 08:24:09;;;;;;;2.67;1.63;;;;;;;11.08;35.35;97693.22;4992686;28;20046;-79
2022/04/17 08:26:38;;;;;;;2.65;1.70;;;;;;;11.10;34.72;97685.25;4992693;28;20116;-79
2022/04/17 08:29:06;;;;;;;3.08;1.52;;;;;;;11.13;34.83;97680.53;4993412;28;20133;-78
2022/04/17 08:31:34;;;;;;;2.08;1.88;;;;;;;11.24;35.00;97682.03;4986470;28;20053;-79
2022/04/17 08:34:02;;;;;;;2.03;1.92;;;;;;;11.37;34.67;97676.34;4987175;28;20120;-79
2022/04/17 08:36:29;;;;;;;1.75;1.55;;;;;;;11.48;34.41;97667.41;4992778;28;20046;-80
2022/04/17 08:38:57;;;;;;;2.55;2.00;;;;;;;11.59;34.59;97663.63;4992886;28;20046;-79
2022/04/17 08:41:27;;;;;;;1.90;1.70;;;;;;;11.70;34.37;97671.16;4993247;28;20050;-79
2022/04/17 08:43:56;;;;;;;1.67;1.58;;;;;;;11.78;34.21;97662.50;4993071;28;20081;-80
2022/04/17 08:46:23;;;;;;;5.30;1.92;;;;;;;11.83;34.19;97662.81;4992406;28;20058;-80
2022/04/17 08:48:52;;;;;;;2.60;1.77;;;;;;;11.88;34.43;97657.97;4993209;28;20046;-79
2022/04/17 08:51:21;;;;;;;2.15;1.52;;;;;;;11.94;34.39;97652.91;4989620;28;20133;-78
2022/04/17 08:53:51;;;;;;;2.88;1.85;;;;;;;12.04;34.57;97639.63;4993355;28;20042;-78
2022/04/17 08:56:18;;;;;;;2.75;1.50;;;;;;;12.15;33.87;97646.31;5004383;28;20041;-80
2022/04/17 08:58:46;;;;;;;2.17;1.65;;;;;;;12.26;33.45;97640.75;5010391;28;20085;-80
2022/04/17 09:01:18;;;;;;;3.47;2.17;;;;;;;12.36;32.42;97645.81;5005668;28;20042;-80
2022/04/17 09:03:47;;;;;;;2.13;1.70;;;;;;;12.35;32.97;97642.38;4993196;28;20069;-80
2022/04/17 09:06:18;;;;;;;2.67;2.00;;;;;;;12.33;33.22;97641.75;4992243;28;20042;-78
2022/04/17 09:09:03;;;;;;;1.77;1.40;;;;;;;12.36;32.41;97641.38;4992894;28;20053;-80
2022/04/17 09:11:32;;;;;;;2.50;1.73;;;;;;;12.36;32.83;97630.13;4992922;28;20046;-79
2022/04/17 09:14:01;;;;;;;4.45;1.67;;;;;;;12.40;32.49;97631.41;4992990;28;20050;-79
2022/04/17 09:16:31;;;;;;;1.70;1.60;;;;;;;12.45;32.46;97636.13;4991979;28;20052;-79
2022/04/17 09:18:59;;;;;;;1.95;1.52;;;;;;;12.53;33.01;97625.66;4993072;28;20050;-79
2022/04/17 09:21:29;;;;;;;2.28;1.77;;;;;;;12.65;32.79;97628.72;4992491;28;20046;-79
2022/04/17 09:24:13;;;;;;;1.65;1.55;;;;;;;12.78;32.51;97623.75;4982713;28;20052;-78
2022/04/17 09:26:56;;;;;;;4.40;1.90;;;;;;;12.91;32.45;97623.19;4992006;28;20402;-80
2022/04/17 09:29:24;;;;;;;;;;;;;;;13.02;32.92;97609.72;4992587;28;20050;-79
2022/04/17 09:32:01;;;;;;;1.80;1.65;;;;;;;13.11;33.48;97605.25;4993722;28;19922;-80
2022/04/17 09:34:30;;;;;;;1.63;1.52;;;;;;;13.24;32.93;97599.44;4994502;28;20058;-80
2022/04/17 09:36:58;;;;;;;3.15;1.80;;;;;;;13.37;33.30;97595.28;4995952;28;20053;-79
2022/04/17 09:39:32;;;;;;;2.58;1.80;;;;;;;13.48;31.49;97601.09;4996273;28;20057;-79
2022/04/17 09:42:02;;;;;;;3.38;1.45;;;;;;;13.55;31.11;97588.91;4996381;28;20043;-79
2022/04/17 09:44:38;;;;;;;2.30;1.42;;;;;;;13.60;30.55;97589.22;4996243;28;20051;-78
2022/04/17 09:47:12;;;;;;;4.72;1.77;;;;;;;13.57;31.02;97593.00;4996451;28;20415;-78
2022/04/17 09:49:55;;;;;;;3.60;1.63;;;;;;;13.56;32.33;97578.25;4997215;28;20051;-78
2022/04/17 09:52:24;;;;;;;1.45;1.20;;;;;;;13.62;31.06;97589.03;4996254;28;20072;-78
2022/04/17 09:54:53;;;;;;;1.92;1.38;;;;;;;13.65;31.23;97579.00;4995764;28;20058;-78
2022/04/17 09:57:28;;;;;;;2.38;1.30;;;;;;;13.73;29.56;97575.50;4991644;28;20039;-80
2022/04/17 09:59:57;;;;;;;2.08;1.45;;;;;;;13.81;30.35;97578.06;4989372;28;20074;-79
2022/04/17 10:02:26;;;;;;;1.77;1.17;;;;;;;13.92;30.00;97580.22;4989357;28;20402;-78
2022/04/17 10:04:54;;;;;;;1.70;1.60;;;;;;;14.03;29.58;97573.72;4995829;28;20762;-79
2022/04/17 10:07:24;;;;;;;1.85;1.38;;;;;;;14.13;30.25;97578.75;4995046;28;20526;-80
2022/04/17 10:09:52;;;;;;;2.63;1.00;;;;;;;14.19;29.22;97564.88;4995721;28;20073;-78
2022/04/17 10:12:21;;;;;;;1.30;1.20;;;;;;;14.21;28.57;97563.72;4995909;28;20050;-80
2022/04/17 10:14:50;;;;;;;1.33;1.02;;;;;;;14.21;28.67;97557.63;4995756;28;20056;-80
2022/04/17 10:17:20;;;;;;;2.30;1.13;;;;;;;14.21;29.50;97553.22;4995360;28;20065;-79
2022/04/17 10:19:50;;;;;;;1.25;0.90;;;;;;;14.26;29.05;97555.31;4995885;28;20053;-79
2022/04/17 10:22:20;;;;;;;2.20;1.15;;;;;;;14.32;28.79;97559.00;4992236;28;20137;-80
2022/04/17 10:24:55;;;;;;;3.75;1.60;;;;;;;14.37;29.08;97561.91;4998516;28;20655;-81
2022/04/17 10:28:08;;;;;;;8.73;1.95;;;;;;;14.45;32.50;97560.97;5001292;28;20069;-81
2022/04/17 10:34:07;;;;;;;2.85;1.52;;;;;;;14.60;28.43;97557.38;5119075;22;19921;-80
2022/04/17 10:37:20;;;;;;;1.20;1.10;;;;;;;14.63;28.43;97553.59;5014784;22;20061;-80
2022/04/17 10:39:51;;;;;;;1.55;1.20;;;;;;;14.64;28.35;97555.19;5035690;28;20052;-80
2022/04/17 10:42:19;;;;;;;1.30;1.00;;;;;;;14.69;27.92;97544.94;5036168;28;20053;-78
2022/04/17 10:45:01;;;;;;;1.90;1.40;;;;;;;14.70;27.49;97540.53;5036443;28;20050;-79
2022/04/17 10:47:29;;;;;;;2.05;1.63;;;;;;;14.71;27.81;97527.19;5024896;28;20072;-80
2022/04/17 10:50:00;;;;;;;1.67;1.27;;;;;;;14.70;27.43;97530.81;5026228;28;20042;-81
2022/04/17 10:52:31;;;;;;;2.10;1.23;;;;;;;14.70;27.32;97522.13;5036926;28;20080;-81
2022/04/17 10:55:08;;;;;;;2.75;1.45;;;;;;;14.77;27.66;97525.66;5035295;28;20061;-79
2022/04/17 10:57:43;;;;;;;3.47;1.70;;;;;;;14.87;27.13;97535.84;5026218;28;20053;-80
2022/04/17 11:00:28;;;;;;;2.88;1.45;;;;;;;14.91;27.25;97529.22;5035200;28;20061;-79
2022/04/17 11:03:20;;;;;;;3.17;1.45;;;;;;;14.88;27.68;97524.34;5034655;28;20081;-80
2022/04/17 11:08:47;;;;;;;4.10;1.48;;;;;;;14.90;30.21;97525.78;5034866;28;20053;-81
2022/04/17 11:11:15;;;;;;;3.25;1.60;;;;;;;14.98;29.13;97519.63;5035705;28;20077;-80
2022/04/17 11:14:11;;;;;;;2.10;1.40;;;;;;;15.03;27.93;97509.34;5034315;28;20718;-79
2022/04/17 11:16:53;;;;;;;1.60;1.27;;;;;;;15.02;27.97;97505.06;5035144;28;20049;-77
2022/04/17 11:19:22;;;;;;;2.07;1.27;;;;;;;15.01;27.73;97508.72;5034449;28;20495;-79
2022/04/17 11:21:52;;;;;;;1.75;1.30;;;;;;;15.03;26.95;97504.91;5034309;28;20064;-79
2022/04/17 11:24:22;;;;;;;2.70;1.60;;;;;;;15.07;27.38;97500.09;5032896;28;20052;-79
2022/04/17 11:27:10;;;;;;;1.85;1.35;;;;;;;15.08;27.47;97503.53;5037866;28;20049;-79
2022/04/17 11:29:43;;;;;;;2.85;1.38;;;;;;;15.08;27.02;97496.44;5040621;28;20052;-80
2022/04/17 11:32:52;;;;;;;2.25;1.38;;;;;;;15.09;28.09;97487.56;5033677;28;20046;-80
2022/04/17 11:35:22;;;;;;;3.60;1.30;;;;;;;15.14;27.58;97487.00;5038956;28;20056;-79
2022/04/17 11:37:54;;;;;;;1.73;1.38;;;;;;;15.10;27.55;97476.06;5033369;28;20056;-79
2022/04/17 11:40:27;;;;;;;1.73;1.48;;;;;;;15.10;29.11;97489.19;5033694;28;20495;-79
2022/04/17 11:42:57;;;;;;;1.23;1.13;;;;;;;15.17;27.96;97473.47;5040010;28;20042;-80
2022/04/17 11:45:29;;;;;;;1.55;1.20;;;;;;;15.17;28.13;97473.47;5033991;28;20053;-78
2022/04/17 11:48:04;;;;;;;2.67;1.63;;;;;;;15.18;27.16;97483.81;5033029;28;20045;-79
2022/04/17 11:50:32;;;;;;;1.83;1.10;;;;;;;15.20;27.87;97473.13;5033742;28;20061;-80
2022/04/17 11:53:00;;;;;;;2.30;1.35;;;;;;;15.24;27.56;97455.97;5033127;28;20049;-79
2022/04/17 11:55:31;;;;;;;1.08;1.00;;;;;;;15.28;27.75;97461.66;5033640;28;20053;-79
2022/04/17 11:58:00;;;;;;;1.75;1.40;;;;;;;15.37;27.87;97455.25;5031915;28;20055;-79
2022/04/17 12:00:29;;;;;;;1.42;1.33;;;;;;;15.46;27.89;97456.75;5057783;28;20033;-79
2022/04/17 12:02:58;;;;;;;3.13;1.40;;;;;;;15.51;28.24;97449.09;5054535;28;20053;-80
2022/04/17 12:05:26;;;;;;;4.63;1.60;;;;;;;15.56;27.83;97459.03;5052306;28;20052;-79
2022/04/17 12:08:09;;;;;;;2.55;1.35;;;;;;;15.56;27.48;97456.38;5032814;28;20053;-80
2022/04/17 12:10:40;;;;;;;;;;;;;;;15.62;27.92;97455.63;5034520;28;20095;-78
2022/04/17 12:13:18;;;;;;;1.58;1.00;;;;;;;15.64;28.31;97453.63;5033503;28;19921;-80
2022/04/17 12:15:48;;;;;;;1.67;1.58;;;;;;;15.60;27.39;97452.38;5038560;28;20503;-77
2022/04/17 12:18:18;;;;;;;1.92;1.40;;;;;;;15.50;27.20;97439.56;5033991;28;20058;-80
2022/04/17 12:20:55;;;;;;;3.38;1.58;;;;;;;15.46;26.98;97438.34;5033002;28;20056;-77
2022/04/17 12:23:23;;;;;;;3.03;1.17;;;;;;;15.47;28.28;97432.06;5033840;28;20053;-78
2022/04/17 12:25:53;;;;;;;1.65;1.20;;;;;;;15.47;26.97;97434.69;5032992;28;20053;-78
2022/04/17 12:28:22;;;;;;;2.05;1.27;;;;;;;15.43;27.31;97434.25;5033364;28;20488;-78
2022/04/17 12:30:50;;;;;;;2.20;1.38;;;;;;;15.38;27.73;97427.97;5033067;28;20208;-77
2022/04/17 12:33:24;;;;;;;5.22;1.20;;;;;;;15.37;27.73;97437.66;5032152;28;20056;-78
2022/04/17 12:36:06;;;;;;;2.70;1.50;;;;;;;15.34;27.86;97424.88;5046399;28;20045;-78
2022/04/17 12:38:34;;;;;;;2.60;1.20;;;;;;;15.32;28.06;97424.25;5033104;28;20060;-78